createdAt,value
2022-08-17T00:01:51.398Z,18.55
2022-08-17T00:04:40.794Z,18.32
2022-08-17T00:07:22.016Z,18.42
2022-08-17T00:10:11.983Z,18.41
2022-08-17T00:13:00.027Z,18.39
2022-08-17T00:15:40.816Z,18.34
2022-08-17T00:19:06.830Z,18.30
2022-08-17T00:22:10.612Z,18.20
2022-08-17T00:24:40.009Z,18.14
2022-08-17T00:27:22.804Z,18.13
2022-08-17T00:30:06.535Z,18.11
2022-08-17T00:33:13.691Z,18.11
2022-08-17T00:35:59.929Z,18.03
2022-08-17T00:38:48.783Z,18.07
2022-08-17T00:41:36.987Z,18.11
2022-08-17T00:44:24.741Z,18.15
2022-08-17T00:47:17.765Z,18.18
2022-08-17T00:49:58.972Z,18.23
2022-08-17T00:52:53.744Z,18.26
2022-08-17T00:55:35.942Z,18.29
2022-08-17T00:58:30.441Z,18.30
2022-08-17T01:01:26.783Z,18.30
2022-08-17T01:04:15.928Z,18.31
2022-08-17T01:06:58.795Z,18.33
2022-08-17T01:09:47.755Z,18.36
2022-08-17T01:12:43.795Z,18.35
2022-08-17T01:15:32.711Z,18.39
2022-08-17T01:18:17.925Z,18.45
2022-08-17T01:21:14.790Z,18.47
2022-08-17T01:23:57.898Z,18.53
2022-08-17T01:26:47.726Z,18.46
2022-08-17T01:29:30.930Z,18.48
2022-08-17T01:32:19.683Z,18.43
2022-08-17T01:35:01.880Z,18.43
2022-08-17T01:37:50.684Z,18.46
2022-08-17T01:40:40.862Z,18.49
2022-08-17T01:43:32.688Z,18.48
2022-08-17T01:46:13.861Z,18.51
2022-08-17T01:49:03.650Z,18.48
2022-08-17T01:51:45.885Z,18.45
2022-08-17T01:54:34.671Z,18.43
2022-08-17T01:57:17.874Z,18.41
2022-08-17T02:00:06.631Z,18.33
2022-08-17T02:02:48.942Z,18.36
2022-08-17T02:05:36.759Z,18.32
2022-08-17T02:08:20.173Z,18.32
2022-08-17T02:11:11.405Z,18.33
2022-08-17T02:14:02.496Z,18.35
2022-08-17T02:16:51.629Z,18.35
2022-08-17T02:19:32.856Z,18.39
2022-08-17T02:22:20.643Z,18.45
2022-08-17T02:25:10.613Z,18.44
2022-08-17T02:27:58.806Z,18.46
2022-08-17T02:31:01.127Z,18.41
2022-08-17T02:34:00.586Z,18.35
2022-08-17T02:36:46.595Z,18.30
2022-08-17T02:39:34.579Z,18.30
2022-08-17T02:42:23.596Z,18.33
2022-08-17T02:45:14.789Z,18.31
2022-08-17T02:47:58.734Z,18.33
2022-08-17T02:50:46.791Z,18.34
2022-08-17T02:53:27.567Z,18.35
2022-08-17T02:56:21.579Z,18.34
2022-08-17T02:59:02.796Z,18.31
2022-08-17T03:01:50.662Z,18.33
2022-08-17T03:04:34.881Z,18.35
2022-08-17T03:07:24.540Z,18.38
2022-08-17T03:10:12.537Z,18.38
2022-08-17T03:13:08.576Z,18.41
2022-08-17T03:15:57.559Z,18.43
2022-08-17T03:18:38.754Z,18.44
2022-08-17T03:21:28.762Z,18.48
2022-08-17T03:24:10.395Z,18.52
2022-08-17T03:26:58.511Z,18.54
2022-08-17T03:29:39.823Z,18.55
2022-08-17T03:32:28.640Z,18.54
2022-08-17T03:35:09.726Z,18.57
2022-08-17T03:38:02.516Z,18.57
2022-08-17T03:40:58.439Z,18.62
2022-08-17T03:43:47.492Z,18.62
2022-08-17T03:46:52.547Z,18.65
2022-08-17T03:49:51.714Z,18.59
2022-08-17T03:52:56.599Z,18.55
2022-08-17T03:56:05.503Z,18.55
2022-08-17T03:58:46.486Z,18.52
2022-08-17T04:01:34.758Z,18.54
2022-08-17T04:04:15.478Z,18.53
2022-08-17T04:07:03.668Z,18.50
2022-08-17T04:09:44.476Z,18.52
2022-08-17T04:12:42.422Z,18.49
2022-08-17T04:15:30.447Z,18.51
2022-08-17T04:18:11.654Z,18.59
2022-08-17T04:20:59.456Z,18.65
2022-08-17T04:23:40.640Z,18.65
2022-08-17T04:26:52.457Z,18.58
2022-08-17T04:29:54.410Z,18.54
2022-08-17T04:33:03.837Z,18.50
2022-08-17T04:35:45.668Z,18.49
2022-08-17T04:38:37.413Z,18.49
2022-08-17T04:41:44.414Z,18.54
2022-08-17T04:44:37.695Z,18.55
2022-08-17T04:47:19.608Z,18.60
2022-08-17T04:50:09.402Z,18.63
2022-08-17T04:52:53.719Z,18.64
2022-08-17T04:55:41.394Z,18.65
2022-08-17T04:58:22.579Z,18.66
2022-08-17T05:01:12.484Z,18.68
2022-08-17T05:03:53.590Z,18.69
2022-08-17T05:06:41.380Z,18.66
2022-08-17T05:09:30.404Z,18.67
2022-08-17T05:12:18.616Z,18.67
2022-08-17T05:14:59.446Z,18.61
2022-08-17T05:17:48.566Z,18.58
2022-08-17T05:20:31.351Z,18.58
2022-08-17T05:23:23.345Z,18.48
2022-08-17T05:26:04.666Z,18.50
2022-08-17T05:28:56.953Z,18.54
2022-08-17T05:31:46.376Z,18.52
2022-08-17T05:34:36.678Z,18.49
2022-08-17T05:37:17.342Z,18.51
2022-08-17T05:40:05.374Z,18.50
2022-08-17T05:42:46.616Z,18.47
2022-08-17T05:45:54.916Z,18.45
2022-08-17T05:48:40.094Z,18.47
2022-08-17T05:51:39.314Z,18.44
2022-08-17T05:54:43.308Z,18.44
2022-08-17T05:57:53.524Z,18.35
2022-08-17T06:00:39.318Z,18.35
2022-08-17T06:03:49.276Z,18.34
2022-08-17T06:06:44.873Z,18.32
2022-08-17T06:09:43.274Z,18.31
2022-08-17T06:12:51.439Z,18.27
2022-08-17T06:15:49.287Z,18.31
2022-08-17T06:18:33.496Z,18.36
2022-08-17T06:21:26.312Z,18.38
2022-08-17T06:24:22.467Z,18.39
2022-08-17T06:27:16.281Z,18.35
2022-08-17T06:30:05.504Z,18.35
2022-08-17T06:32:59.270Z,18.28
2022-08-17T06:35:54.233Z,18.20
2022-08-17T06:39:00.254Z,18.22
2022-08-17T06:42:01.250Z,18.26
2022-08-17T06:44:51.304Z,18.37
2022-08-17T06:47:45.227Z,18.36
2022-08-17T06:50:35.133Z,18.40
2022-08-17T06:53:31.226Z,18.39
2022-08-17T06:56:22.323Z,18.42
2022-08-17T06:59:13.410Z,18.42
2022-08-17T07:01:56.217Z,18.46
2022-08-17T07:04:38.478Z,18.55
2022-08-17T07:07:45.195Z,18.73
2022-08-17T07:10:28.876Z,18.86
2022-08-17T07:13:28.218Z,18.87
2022-08-17T07:16:20.424Z,18.86
2022-08-17T07:19:11.325Z,18.93
2022-08-17T07:21:58.757Z,19.04
2022-08-17T07:24:51.187Z,19.20
2022-08-17T07:27:44.494Z,19.19
2022-08-17T07:30:45.528Z,19.27
2022-08-17T07:33:41.016Z,19.29
2022-08-17T07:36:33.166Z,19.29
2022-08-17T07:39:28.136Z,19.27
2022-08-17T07:42:18.158Z,19.31
2022-08-17T07:45:26.157Z,19.29
2022-08-17T07:48:28.179Z,19.26
2022-08-17T07:51:32.238Z,19.13
2022-08-17T07:54:31.318Z,19.17
2022-08-17T07:57:38.141Z,19.11
2022-08-17T08:00:33.142Z,19.17
2022-08-17T08:03:32.077Z,19.29
2022-08-17T08:06:29.253Z,19.41
2022-08-17T08:09:30.573Z,19.58
2022-08-17T08:12:40.145Z,19.72
2022-08-17T08:15:25.693Z,19.84
2022-08-17T08:18:16.095Z,19.86
2022-08-17T08:21:24.985Z,19.76
2022-08-17T08:24:23.178Z,19.83
2022-08-17T08:27:21.325Z,19.95
2022-08-17T08:30:12.095Z,20.07
2022-08-17T08:33:32.444Z,20.08
2022-08-17T08:36:56.928Z,20.13
2022-08-17T08:39:54.661Z,20.15
2022-08-17T08:42:45.262Z,20.29
2022-08-17T08:45:40.274Z,20.90
2022-08-17T08:48:56.895Z,22.35
2022-08-17T08:51:51.763Z,22.62
2022-08-17T08:54:51.046Z,23.22
2022-08-17T08:57:39.564Z,23.05
2022-08-17T09:00:32.046Z,22.80
2022-08-17T09:03:51.539Z,23.08
2022-08-17T09:06:52.494Z,24.85
2022-08-17T09:09:50.074Z,25.64
2022-08-17T09:12:56.014Z,26.82
2022-08-17T09:15:50.031Z,27.90
2022-08-17T09:19:00.179Z,28.62
2022-08-17T09:21:49.042Z,27.88
2022-08-17T09:24:36.208Z,27.34
2022-08-17T09:27:28.016Z,26.11
2022-08-17T09:30:14.216Z,24.77
2022-08-17T09:33:06.043Z,24.03
2022-08-17T09:35:52.217Z,23.30
2022-08-17T09:38:48.006Z,22.85
2022-08-17T09:41:36.189Z,22.56
2022-08-17T09:44:34.118Z,22.35
2022-08-17T09:47:23.180Z,22.11
2022-08-17T09:50:18.175Z,21.93
2022-08-17T09:53:20.214Z,21.94
2022-08-17T09:56:25.047Z,22.03
2022-08-17T09:59:24.193Z,22.08
2022-08-17T10:02:33.957Z,22.20
2022-08-17T10:05:21.553Z,22.38
2022-08-17T10:08:17.073Z,22.14
2022-08-17T10:11:12.157Z,22.24
2022-08-17T10:14:37.583Z,22.27
2022-08-17T10:17:28.372Z,21.98
2022-08-17T10:20:19.947Z,21.80
2022-08-17T10:23:24.349Z,21.87
2022-08-17T10:26:20.948Z,21.96
2022-08-17T10:29:12.835Z,22.07
2022-08-17T10:32:06.039Z,22.35
2022-08-17T10:35:16.114Z,23.20
2022-08-17T10:38:15.913Z,23.49
2022-08-17T10:41:08.908Z,23.28
2022-08-17T10:44:38.859Z,22.74
2022-08-17T10:47:16.025Z,22.35
2022-08-17T10:49:59.115Z,22.18
2022-08-17T10:52:58.970Z,21.84
2022-08-17T10:55:41.148Z,21.67
2022-08-17T10:58:30.914Z,21.57
2022-08-17T11:01:12.767Z,21.38
2022-08-17T11:04:04.881Z,20.99
2022-08-17T11:07:10.100Z,20.78
2022-08-17T11:10:19.923Z,20.40
2022-08-17T11:13:20.863Z,20.12
2022-08-17T11:16:23.079Z,19.96
2022-08-17T11:19:39.850Z,19.78
2022-08-17T11:23:08.878Z,19.70
2022-08-17T11:26:04.086Z,19.72
2022-08-17T11:28:55.825Z,19.82
2022-08-17T11:31:54.874Z,19.92
2022-08-17T11:34:43.029Z,19.98
2022-08-17T11:37:55.846Z,20.07
2022-08-17T11:40:48.199Z,20.09
2022-08-17T11:44:02.065Z,20.23
2022-08-17T11:47:16.434Z,20.34
2022-08-17T11:50:58.839Z,20.29
2022-08-17T11:54:32.273Z,19.97
2022-08-17T11:57:57.826Z,19.80
2022-08-17T12:01:02.984Z,19.63
2022-08-17T12:03:56.001Z,19.59
2022-08-17T12:06:50.208Z,19.59
2022-08-17T12:09:40.867Z,19.60
2022-08-17T12:12:29.780Z,19.60
2022-08-17T12:15:19.899Z,19.58
2022-08-17T12:18:09.770Z,19.63
2022-08-17T12:21:05.835Z,19.69
2022-08-17T12:24:03.780Z,19.70
2022-08-17T12:26:46.964Z,19.73
2022-08-17T12:29:39.149Z,19.76
2022-08-17T12:32:25.451Z,19.80
2022-08-17T12:35:27.768Z,19.91
2022-08-17T12:38:26.854Z,19.93
2022-08-17T12:41:35.759Z,20.21
2022-08-17T12:44:23.242Z,20.46
2022-08-17T12:47:21.588Z,20.39
2022-08-17T12:50:29.259Z,20.27
2022-08-17T12:53:19.829Z,20.09
2022-08-17T12:56:03.229Z,19.96
2022-08-17T12:59:00.751Z,19.94
2022-08-17T13:01:48.059Z,19.92
2022-08-17T13:04:36.692Z,20.12
2022-08-17T13:07:26.848Z,20.22
2022-08-17T13:10:08.735Z,20.20
2022-08-17T13:12:57.702Z,20.22
2022-08-17T13:15:50.224Z,20.22
2022-08-17T13:18:48.682Z,20.25
2022-08-17T13:21:38.378Z,20.26
2022-08-17T13:24:27.705Z,20.19
2022-08-17T13:27:21.732Z,20.24
2022-08-17T13:30:12.704Z,20.24
2022-08-17T13:33:04.673Z,20.20
2022-08-17T13:35:51.955Z,20.30
2022-08-17T13:38:52.768Z,20.53
2022-08-17T13:41:43.893Z,20.69
2022-08-17T13:44:38.852Z,20.67
2022-08-17T13:47:26.640Z,20.72
2022-08-17T13:50:28.645Z,20.77
2022-08-17T13:53:11.266Z,20.87
2022-08-17T13:56:01.639Z,20.76
2022-08-17T13:58:47.163Z,20.75
2022-08-17T14:01:41.685Z,20.72
2022-08-17T14:04:31.640Z,20.86
2022-08-17T14:07:38.831Z,21.01
2022-08-17T14:10:23.602Z,21.09
2022-08-17T14:13:05.695Z,21.08
2022-08-17T14:15:56.811Z,21.26
2022-08-17T14:18:56.605Z,21.42
2022-08-17T14:21:44.618Z,21.50
2022-08-17T14:24:38.949Z,21.58
2022-08-17T14:27:24.586Z,21.50
2022-08-17T14:30:14.577Z,21.43
2022-08-17T14:33:04.609Z,21.26
2022-08-17T14:35:47.315Z,21.23
2022-08-17T14:38:34.703Z,21.37
2022-08-17T14:41:23.554Z,21.44
2022-08-17T14:44:04.572Z,21.58
2022-08-17T14:46:52.958Z,21.56
2022-08-17T14:49:37.657Z,21.51
2022-08-17T14:52:27.785Z,21.46
2022-08-17T14:55:08.584Z,21.33
2022-08-17T14:57:56.812Z,21.33
2022-08-17T15:00:38.539Z,21.42
2022-08-17T15:03:26.743Z,21.46
2022-08-17T15:06:10.563Z,21.59
2022-08-17T15:08:58.738Z,21.54
2022-08-17T15:11:41.660Z,21.56
2022-08-17T15:14:29.819Z,21.52
2022-08-17T15:17:12.531Z,21.51
2022-08-17T15:20:00.733Z,21.41
2022-08-17T15:22:44.486Z,21.22
2022-08-17T15:25:34.524Z,21.12
2022-08-17T15:28:23.509Z,21.04
2022-08-17T15:31:13.620Z,20.94
2022-08-17T15:33:55.043Z,20.80
2022-08-17T15:36:49.115Z,20.79
2022-08-17T15:39:32.841Z,20.74
2022-08-17T15:42:21.464Z,20.87
2022-08-17T15:45:02.675Z,21.02
2022-08-17T15:47:50.699Z,21.12
2022-08-17T15:50:31.692Z,20.89
2022-08-17T15:53:19.488Z,20.73
2022-08-17T15:56:03.336Z,20.66
2022-08-17T15:58:54.641Z,20.53
2022-08-17T16:03:14.150Z,20.56
2022-08-17T16:04:40.214Z,20.71
2022-08-17T16:07:32.163Z,20.79
2022-08-17T16:10:18.871Z,20.77
2022-08-17T16:13:17.870Z,20.72
2022-08-17T16:16:00.466Z,20.65
2022-08-17T16:18:42.289Z,20.67
2022-08-17T16:21:42.458Z,20.74
2022-08-17T16:24:30.419Z,20.76
2022-08-17T16:27:12.759Z,20.83
2022-08-17T16:30:02.441Z,20.87
2022-08-17T16:32:43.697Z,20.87
2022-08-17T16:35:33.422Z,20.86
2022-08-17T16:38:14.636Z,20.85
2022-08-17T16:41:02.384Z,20.76
2022-08-17T16:43:45.770Z,20.72
2022-08-17T16:46:35.600Z,20.68
2022-08-17T16:49:35.425Z,20.68
2022-08-17T16:52:32.832Z,20.61
2022-08-17T16:55:17.620Z,20.74
2022-08-17T16:58:05.372Z,20.58
2022-08-17T17:00:56.438Z,20.55
2022-08-17T17:03:54.063Z,20.56
2022-08-17T17:06:46.381Z,20.50
2022-08-17T17:09:32.801Z,20.55
2022-08-17T17:12:59.515Z,20.58
2022-08-17T17:15:54.353Z,20.57
2022-08-17T17:18:50.340Z,20.60
2022-08-17T17:21:49.480Z,20.63
2022-08-17T17:24:49.964Z,20.43
2022-08-17T17:27:44.376Z,20.39
2022-08-17T17:30:37.337Z,20.30
2022-08-17T17:33:23.479Z,20.28
2022-08-17T17:36:21.401Z,20.25
2022-08-17T17:39:09.516Z,20.16
2022-08-17T17:42:01.333Z,20.13
2022-08-17T17:44:54.410Z,20.11
2022-08-17T17:47:43.581Z,20.11
2022-08-17T17:50:26.477Z,20.14
2022-08-17T17:53:26.130Z,20.08
2022-08-17T17:56:43.047Z,20.05
2022-08-17T17:59:43.913Z,19.95
2022-08-17T18:02:51.652Z,19.95
2022-08-17T18:06:04.266Z,19.88
2022-08-17T18:09:12.309Z,19.87
2022-08-17T18:12:27.273Z,19.88
2022-08-17T18:15:29.513Z,19.85
2022-08-17T18:18:44.382Z,19.81
2022-08-17T18:21:30.267Z,19.81
2022-08-17T18:24:22.242Z,19.82
2022-08-17T18:27:12.315Z,19.83
2022-08-17T18:30:07.117Z,19.85
2022-08-17T18:32:57.278Z,19.83
2022-08-17T18:35:40.456Z,19.76
2022-08-17T18:38:35.232Z,19.70
2022-08-17T18:41:30.556Z,19.74
2022-08-17T18:44:30.296Z,19.68
2022-08-17T18:47:21.532Z,19.66
2022-08-17T18:50:32.299Z,19.54
2022-08-17T18:53:41.206Z,19.47
2022-08-17T18:56:38.281Z,19.43
2022-08-17T18:59:32.509Z,19.41
2022-08-17T19:05:42.767Z,19.36
2022-08-17T19:08:41.311Z,19.41
2022-08-17T19:11:31.418Z,19.38
2022-08-17T19:14:24.268Z,19.30
2022-08-17T19:17:19.189Z,19.31
2022-08-17T19:20:15.120Z,19.26
2022-08-17T19:23:11.268Z,19.23
2022-08-17T19:26:05.825Z,19.15
2022-08-17T19:29:10.247Z,19.16
2022-08-17T19:32:02.178Z,19.14
2022-08-17T19:34:52.144Z,19.12
2022-08-17T19:37:45.429Z,19.11
2022-08-17T19:40:52.136Z,19.09
2022-08-17T19:43:57.237Z,18.99
2022-08-17T19:46:56.382Z,19.02
2022-08-17T19:50:00.578Z,18.94
2022-08-17T19:52:55.259Z,18.98
2022-08-17T19:55:55.617Z,18.90
2022-08-17T19:59:02.225Z,18.90
2022-08-17T20:01:50.379Z,18.90
2022-08-17T20:04:50.230Z,18.91
2022-08-17T20:07:51.465Z,18.85
2022-08-17T20:10:54.888Z,18.82
2022-08-17T20:13:55.134Z,18.81
2022-08-17T20:16:43.087Z,18.82
2022-08-17T20:19:31.567Z,18.87
2022-08-17T20:22:26.059Z,18.83
2022-08-17T20:25:15.486Z,18.84
2022-08-17T20:28:09.165Z,18.80
2022-08-17T20:30:51.492Z,18.76
2022-08-17T20:33:43.068Z,18.71
2022-08-17T20:36:35.174Z,18.65
2022-08-17T20:39:38.290Z,18.52
2022-08-17T20:42:38.051Z,18.52
2022-08-17T20:46:00.498Z,18.41
2022-08-17T20:48:46.598Z,18.41
2022-08-17T20:51:32.626Z,18.41
2022-08-17T20:54:38.002Z,18.43
2022-08-17T20:57:55.041Z,18.35
2022-08-17T21:00:58.182Z,18.34
2022-08-17T21:03:58.223Z,18.33
2022-08-17T21:06:38.998Z,18.31
2022-08-17T21:09:36.162Z,18.32
2022-08-17T21:12:24.001Z,18.35
2022-08-17T21:15:25.166Z,18.38
2022-08-17T21:18:21.039Z,18.35
2022-08-17T21:21:20.986Z,18.41
2022-08-17T21:24:20.968Z,18.42
2022-08-17T21:27:19.071Z,18.46
2022-08-17T21:30:44.601Z,18.41
2022-08-17T21:33:38.004Z,18.46
2022-08-17T21:36:35.286Z,18.46
2022-08-17T21:39:21.368Z,18.50
2022-08-17T21:42:13.961Z,18.53
2022-08-17T21:45:04.938Z,18.59
2022-08-17T21:47:57.956Z,18.58
2022-08-17T21:50:41.750Z,18.58
2022-08-17T21:53:34.953Z,18.58
2022-08-17T21:56:26.949Z,18.51
2022-08-17T21:59:32.143Z,18.56
2022-08-17T22:02:15.910Z,18.58
2022-08-17T22:05:09.113Z,18.54
2022-08-17T22:07:53.952Z,18.59
2022-08-17T22:10:46.253Z,18.55
2022-08-17T22:13:40.882Z,18.52
2022-08-17T22:16:29.857Z,18.44
2022-08-17T22:19:18.878Z,18.44
2022-08-17T22:22:11.890Z,18.55
2022-08-17T22:25:06.095Z,18.59
2022-08-17T22:28:03.102Z,18.58
2022-08-17T22:30:45.897Z,18.57
2022-08-17T22:33:43.086Z,18.61
2022-08-17T22:36:35.869Z,18.58
2022-08-17T22:39:48.907Z,18.55
2022-08-17T22:42:30.079Z,18.39
2022-08-17T22:45:17.905Z,18.51
2022-08-17T22:48:03.091Z,18.56
2022-08-17T22:50:50.861Z,18.54
2022-08-17T22:53:56.871Z,18.47
2022-08-17T22:57:12.863Z,18.42
2022-08-17T23:00:04.010Z,18.45
2022-08-17T23:03:12.979Z,18.45
2022-08-17T23:06:15.864Z,18.52
2022-08-17T23:09:04.876Z,18.50
2022-08-17T23:11:52.048Z,18.53
2022-08-17T23:14:45.892Z,18.47
2022-08-17T23:17:48.983Z,18.46
2022-08-17T23:20:37.848Z,18.48
2022-08-17T23:23:23.694Z,18.51
2022-08-17T23:26:16.841Z,18.50
2022-08-17T23:29:04.339Z,18.55
2022-08-17T23:31:51.814Z,18.57
2022-08-17T23:34:34.009Z,18.63
2022-08-17T23:37:21.911Z,18.62
2022-08-17T23:40:09.883Z,18.67
2022-08-17T23:42:52.205Z,18.69
2022-08-17T23:45:42.825Z,18.72
2022-08-17T23:48:35.556Z,18.74
2022-08-17T23:51:21.784Z,18.76
2022-08-17T23:54:12.809Z,18.74
2022-08-17T23:56:54.076Z,18.72
2022-08-17T23:59:43.775Z,18.73
